sensor_id;sensor_type;location;lat;lon;timestamp;P1;durP1;ratioP1;P2;durP2;ratioP2
14076;SDS011;7114;51.100;13.998;2023-11-21T00:01:41;4.63;;;0.98;;
14076;SDS011;7114;51.100;13.998;2023-11-21T00:04:08;5.22;;;1.02;;
14076;SDS011;7114;51.100;13.998;2023-11-21T00:06:36;4.85;;;0.95;;
14076;SDS011;7114;51.100;13.998;2023-11-21T00:09:02;5.10;;;0.90;;
14076;SDS011;7114;51.100;13.998;2023-11-21T00:11:28;5.73;;;0.90;;
14076;SDS011;7114;51.100;13.998;2023-11-21T00:13:55;6.68;;;0.95;;
14076;SDS011;7114;51.100;13.998;2023-11-21T00:16:21;5.97;;;1.17;;
14076;SDS011;7114;51.100;13.998;2023-11-21T00:18:48;4.85;;;0.93;;
14076;SDS011;7114;51.100;13.998;2023-11-21T00:21:14;7.20;;;1.20;;
14076;SDS011;7114;51.100;13.998;2023-11-21T00:23:42;5.73;;;1.23;;
14076;SDS011;7114;51.100;13.998;2023-11-21T00:26:08;5.90;;;1.40;;
14076;SDS011;7114;51.100;13.998;2023-11-21T00:28:35;6.32;;;1.15;;
14076;SDS011;7114;51.100;13.998;2023-11-21T00:31:01;5.68;;;1.02;;
14076;SDS011;7114;51.100;13.998;2023-11-21T00:33:29;6.50;;;1.30;;
14076;SDS011;7114;51.100;13.998;2023-11-21T00:35:55;5.00;;;1.00;;
14076;SDS011;7114;51.100;13.998;2023-11-21T00:38:21;4.72;;;0.98;;
14076;SDS011;7114;51.100;13.998;2023-11-21T00:40:49;6.88;;;1.00;;
14076;SDS011;7114;51.100;13.998;2023-11-21T00:43:16;5.60;;;1.10;;
14076;SDS011;7114;51.100;13.998;2023-11-21T00:45:42;6.55;;;1.10;;
14076;SDS011;7114;51.100;13.998;2023-11-21T00:48:09;5.90;;;1.20;;
14076;SDS011;7114;51.100;13.998;2023-11-21T00:50:37;4.68;;;0.70;;
14076;SDS011;7114;51.100;13.998;2023-11-21T00:53:03;5.10;;;0.80;;
14076;SDS011;7114;51.100;13.998;2023-11-21T00:55:30;6.38;;;0.88;;
14076;SDS011;7114;51.100;13.998;2023-11-21T00:57:57;6.53;;;0.88;;
14076;SDS011;7114;51.100;13.998;2023-11-21T01:00:24;5.73;;;0.90;;
14076;SDS011;7114;51.100;13.998;2023-11-21T01:02:51;6.28;;;0.98;;
14076;SDS011;7114;51.100;13.998;2023-11-21T01:05:17;5.18;;;1.08;;
14076;SDS011;7114;51.100;13.998;2023-11-21T01:07:44;4.68;;;0.90;;
14076;SDS011;7114;51.100;13.998;2023-11-21T01:10:11;4.20;;;0.70;;
14076;SDS011;7114;51.100;13.998;2023-11-21T01:12:37;6.57;;;0.80;;
14076;SDS011;7114;51.100;13.998;2023-11-21T01:15:06;6.10;;;0.90;;
14076;SDS011;7114;51.100;13.998;2023-11-21T01:17:33;6.15;;;0.80;;
14076;SDS011;7114;51.100;13.998;2023-11-21T01:19:59;4.75;;;0.70;;
14076;SDS011;7114;51.100;13.998;2023-11-21T01:22:26;5.05;;;0.73;;
14076;SDS011;7114;51.100;13.998;2023-11-21T01:24:53;4.47;;;0.63;;
14076;SDS011;7114;51.100;13.998;2023-11-21T01:27:19;6.53;;;0.82;;
14076;SDS011;7114;51.100;13.998;2023-11-21T01:29:46;5.32;;;0.75;;
14076;SDS011;7114;51.100;13.998;2023-11-21T01:32:13;5.07;;;0.82;;
14076;SDS011;7114;51.100;13.998;2023-11-21T01:34:40;6.72;;;0.77;;
14076;SDS011;7114;51.100;13.998;2023-11-21T01:37:06;6.50;;;1.00;;
14076;SDS011;7114;51.100;13.998;2023-11-21T01:39:33;5.10;;;0.90;;
14076;SDS011;7114;51.100;13.998;2023-11-21T01:41:59;5.07;;;0.73;;
14076;SDS011;7114;51.100;13.998;2023-11-21T01:44:26;5.55;;;0.80;;
14076;SDS011;7114;51.100;13.998;2023-11-21T01:46:52;7.90;;;0.90;;
14076;SDS011;7114;51.100;13.998;2023-11-21T01:49:20;7.23;;;1.00;;
14076;SDS011;7114;51.100;13.998;2023-11-21T01:51:47;6.57;;;0.90;;
14076;SDS011;7114;51.100;13.998;2023-11-21T01:54:14;6.60;;;0.82;;
14076;SDS011;7114;51.100;13.998;2023-11-21T01:56:42;5.32;;;0.90;;
14076;SDS011;7114;51.100;13.998;2023-11-21T01:59:08;8.48;;;1.00;;
14076;SDS011;7114;51.100;13.998;2023-11-21T02:01:35;8.10;;;1.00;;
14076;SDS011;7114;51.100;13.998;2023-11-21T02:04:01;5.95;;;1.10;;
14076;SDS011;7114;51.100;13.998;2023-11-21T02:06:29;5.60;;;1.00;;
14076;SDS011;7114;51.100;13.998;2023-11-21T02:08:56;5.65;;;0.90;;
14076;SDS011;7114;51.100;13.998;2023-11-21T02:11:24;6.68;;;1.13;;
14076;SDS011;7114;51.100;13.998;2023-11-21T02:13:52;6.13;;;1.20;;
14076;SDS011;7114;51.100;13.998;2023-11-21T02:16:19;7.43;;;1.20;;
14076;SDS011;7114;51.100;13.998;2023-11-21T02:18:45;9.10;;;1.30;;
14076;SDS011;7114;51.100;13.998;2023-11-21T02:21:13;6.18;;;1.25;;
14076;SDS011;7114;51.100;13.998;2023-11-21T02:23:41;8.90;;;1.30;;
14076;SDS011;7114;51.100;13.998;2023-11-21T02:26:09;6.27;;;1.40;;
14076;SDS011;7114;51.100;13.998;2023-11-21T02:28:35;5.45;;;0.90;;
14076;SDS011;7114;51.100;13.998;2023-11-21T02:31:03;7.85;;;1.15;;
14076;SDS011;7114;51.100;13.998;2023-11-21T02:33:30;6.95;;;0.95;;
14076;SDS011;7114;51.100;13.998;2023-11-21T02:35:58;7.18;;;1.38;;
14076;SDS011;7114;51.100;13.998;2023-11-21T02:38:25;7.27;;;1.30;;
14076;SDS011;7114;51.100;13.998;2023-11-21T02:40:52;6.95;;;1.17;;
14076;SDS011;7114;51.100;13.998;2023-11-21T02:43:19;6.65;;;1.20;;
14076;SDS011;7114;51.100;13.998;2023-11-21T02:45:45;7.43;;;1.10;;
14076;SDS011;7114;51.100;13.998;2023-11-21T02:48:11;6.20;;;1.30;;
14076;SDS011;7114;51.100;13.998;2023-11-21T02:50:38;7.00;;;1.33;;
14076;SDS011;7114;51.100;13.998;2023-11-21T02:53:04;5.72;;;1.20;;
14076;SDS011;7114;51.100;13.998;2023-11-21T02:55:31;7.93;;;1.20;;
14076;SDS011;7114;51.100;13.998;2023-11-21T02:58:01;7.72;;;1.13;;
14076;SDS011;7114;51.100;13.998;2023-11-21T03:00:28;6.25;;;1.05;;
14076;SDS011;7114;51.100;13.998;2023-11-21T03:02:55;5.60;;;1.20;;
14076;SDS011;7114;51.100;13.998;2023-11-21T03:05:22;6.15;;;1.30;;
14076;SDS011;7114;51.100;13.998;2023-11-21T03:07:48;6.85;;;1.38;;
14076;SDS011;7114;51.100;13.998;2023-11-21T03:10:14;7.00;;;1.35;;
14076;SDS011;7114;51.100;13.998;2023-11-21T03:12:41;7.63;;;1.30;;
14076;SDS011;7114;51.100;13.998;2023-11-21T03:15:09;7.40;;;1.20;;
14076;SDS011;7114;51.100;13.998;2023-11-21T03:17:36;6.95;;;1.30;;
14076;SDS011;7114;51.100;13.998;2023-11-21T03:20:02;6.70;;;1.15;;
14076;SDS011;7114;51.100;13.998;2023-11-21T03:22:29;6.65;;;1.20;;
14076;SDS011;7114;51.100;13.998;2023-11-21T03:24:55;5.35;;;1.25;;
14076;SDS011;7114;51.100;13.998;2023-11-21T03:27:22;6.43;;;1.20;;
14076;SDS011;7114;51.100;13.998;2023-11-21T03:29:48;7.30;;;1.60;;
14076;SDS011;7114;51.100;13.998;2023-11-21T03:32:16;7.00;;;1.25;;
14076;SDS011;7114;51.100;13.998;2023-11-21T03:34:52;5.43;;;1.00;;
14076;SDS011;7114;51.100;13.998;2023-11-21T03:37:20;6.28;;;1.40;;
14076;SDS011;7114;51.100;13.998;2023-11-21T03:39:49;6.07;;;1.17;;
14076;SDS011;7114;51.100;13.998;2023-11-21T03:42:16;5.72;;;1.30;;
14076;SDS011;7114;51.100;13.998;2023-11-21T03:44:42;6.70;;;1.42;;
14076;SDS011;7114;51.100;13.998;2023-11-21T03:47:08;7.30;;;1.40;;
14076;SDS011;7114;51.100;13.998;2023-11-21T03:49:36;6.05;;;1.42;;
14076;SDS011;7114;51.100;13.998;2023-11-21T03:52:03;6.07;;;1.20;;
14076;SDS011;7114;51.100;13.998;2023-11-21T03:54:30;7.43;;;1.38;;
14076;SDS011;7114;51.100;13.998;2023-11-21T03:56:56;7.57;;;1.27;;
14076;SDS011;7114;51.100;13.998;2023-11-21T03:59:23;7.22;;;1.30;;
14076;SDS011;7114;51.100;13.998;2023-11-21T04:01:49;6.10;;;1.08;;
14076;SDS011;7114;51.100;13.998;2023-11-21T04:04:16;7.93;;;1.60;;
14076;SDS011;7114;51.100;13.998;2023-11-21T04:06:43;7.15;;;1.17;;
14076;SDS011;7114;51.100;13.998;2023-11-21T04:09:10;8.00;;;1.20;;
14076;SDS011;7114;51.100;13.998;2023-11-21T04:11:37;7.15;;;1.27;;
14076;SDS011;7114;51.100;13.998;2023-11-21T04:14:04;7.38;;;1.30;;
14076;SDS011;7114;51.100;13.998;2023-11-21T04:16:30;6.83;;;1.37;;
14076;SDS011;7114;51.100;13.998;2023-11-21T04:18:56;8.45;;;1.27;;
14076;SDS011;7114;51.100;13.998;2023-11-21T04:21:23;5.85;;;1.13;;
14076;SDS011;7114;51.100;13.998;2023-11-21T04:23:51;6.78;;;1.40;;
14076;SDS011;7114;51.100;13.998;2023-11-21T04:26:17;8.65;;;1.20;;
14076;SDS011;7114;51.100;13.998;2023-11-21T04:28:43;7.63;;;1.20;;
14076;SDS011;7114;51.100;13.998;2023-11-21T04:31:10;6.72;;;1.30;;
14076;SDS011;7114;51.100;13.998;2023-11-21T04:33:36;5.20;;;1.02;;
14076;SDS011;7114;51.100;13.998;2023-11-21T04:36:04;7.60;;;1.40;;
14076;SDS011;7114;51.100;13.998;2023-11-21T04:38:30;6.07;;;1.40;;
14076;SDS011;7114;51.100;13.998;2023-11-21T04:40:59;7.73;;;1.37;;
14076;SDS011;7114;51.100;13.998;2023-11-21T04:43:25;5.90;;;1.30;;
14076;SDS011;7114;51.100;13.998;2023-11-21T04:45:52;5.35;;;1.17;;
14076;SDS011;7114;51.100;13.998;2023-11-21T04:48:18;7.22;;;1.55;;
14076;SDS011;7114;51.100;13.998;2023-11-21T04:50:44;7.45;;;1.30;;
14076;SDS011;7114;51.100;13.998;2023-11-21T04:53:11;7.50;;;1.47;;
14076;SDS011;7114;51.100;13.998;2023-11-21T04:55:39;7.55;;;1.80;;
14076;SDS011;7114;51.100;13.998;2023-11-21T04:58:07;9.25;;;1.60;;
14076;SDS011;7114;51.100;13.998;2023-11-21T05:00:33;7.85;;;1.50;;
14076;SDS011;7114;51.100;13.998;2023-11-21T05:03:01;7.90;;;1.60;;
14076;SDS011;7114;51.100;13.998;2023-11-21T05:05:28;8.40;;;1.40;;
14076;SDS011;7114;51.100;13.998;2023-11-21T05:07:55;7.80;;;1.80;;
14076;SDS011;7114;51.100;13.998;2023-11-21T05:10:21;8.50;;;1.88;;
14076;SDS011;7114;51.100;13.998;2023-11-21T05:12:48;8.32;;;1.70;;
14076;SDS011;7114;51.100;13.998;2023-11-21T05:15:16;7.82;;;1.50;;
14076;SDS011;7114;51.100;13.998;2023-11-21T05:17:43;9.07;;;1.93;;
14076;SDS011;7114;51.100;13.998;2023-11-21T05:20:10;7.95;;;1.70;;
14076;SDS011;7114;51.100;13.998;2023-11-21T05:22:38;8.43;;;1.70;;
14076;SDS011;7114;51.100;13.998;2023-11-21T05:25:05;7.60;;;1.90;;
14076;SDS011;7114;51.100;13.998;2023-11-21T05:27:32;8.82;;;1.88;;
14076;SDS011;7114;51.100;13.998;2023-11-21T05:29:59;8.00;;;1.70;;
14076;SDS011;7114;51.100;13.998;2023-11-21T05:32:28;7.47;;;2.00;;
14076;SDS011;7114;51.100;13.998;2023-11-21T05:34:54;15.32;;;2.38;;
14076;SDS011;7114;51.100;13.998;2023-11-21T05:37:21;9.50;;;2.00;;
14076;SDS011;7114;51.100;13.998;2023-11-21T05:39:48;10.20;;;2.38;;
14076;SDS011;7114;51.100;13.998;2023-11-21T05:42:14;8.43;;;1.70;;
14076;SDS011;7114;51.100;13.998;2023-11-21T05:44:42;8.15;;;1.80;;
14076;SDS011;7114;51.100;13.998;2023-11-21T05:47:09;7.38;;;1.65;;
14076;SDS011;7114;51.100;13.998;2023-11-21T05:49:36;9.00;;;1.77;;
14076;SDS011;7114;51.100;13.998;2023-11-21T05:52:03;10.32;;;2.35;;
14076;SDS011;7114;51.100;13.998;2023-11-21T05:54:30;10.77;;;2.47;;
14076;SDS011;7114;51.100;13.998;2023-11-21T05:56:56;10.98;;;2.20;;
14076;SDS011;7114;51.100;13.998;2023-11-21T05:59:23;8.90;;;2.00;;
14076;SDS011;7114;51.100;13.998;2023-11-21T06:01:49;10.63;;;1.90;;
14076;SDS011;7114;51.100;13.998;2023-11-21T06:04:15;10.25;;;1.90;;
14076;SDS011;7114;51.100;13.998;2023-11-21T06:06:44;9.77;;;1.87;;
14076;SDS011;7114;51.100;13.998;2023-11-21T06:09:11;9.63;;;2.20;;
14076;SDS011;7114;51.100;13.998;2023-11-21T06:11:38;9.18;;;2.00;;
14076;SDS011;7114;51.100;13.998;2023-11-21T06:14:04;12.43;;;2.40;;
14076;SDS011;7114;51.100;13.998;2023-11-21T06:16:33;8.45;;;2.00;;
14076;SDS011;7114;51.100;13.998;2023-11-21T06:18:59;7.63;;;2.00;;
14076;SDS011;7114;51.100;13.998;2023-11-21T06:21:26;7.63;;;2.03;;
14076;SDS011;7114;51.100;13.998;2023-11-21T06:23:54;6.47;;;2.08;;
14076;SDS011;7114;51.100;13.998;2023-11-21T06:26:22;7.03;;;2.03;;
14076;SDS011;7114;51.100;13.998;2023-11-21T06:28:49;8.15;;;1.63;;
14076;SDS011;7114;51.100;13.998;2023-11-21T06:31:16;8.00;;;2.17;;
14076;SDS011;7114;51.100;13.998;2023-11-21T06:33:42;10.48;;;2.25;;
14076;SDS011;7114;51.100;13.998;2023-11-21T06:36:09;7.90;;;2.20;;
14076;SDS011;7114;51.100;13.998;2023-11-21T06:38:37;9.60;;;2.05;;
14076;SDS011;7114;51.100;13.998;2023-11-21T06:41:05;9.38;;;2.20;;
14076;SDS011;7114;51.100;13.998;2023-11-21T06:43:32;10.03;;;2.50;;
14076;SDS011;7114;51.100;13.998;2023-11-21T06:45:58;11.90;;;2.50;;
14076;SDS011;7114;51.100;13.998;2023-11-21T06:48:25;10.60;;;2.50;;
14076;SDS011;7114;51.100;13.998;2023-11-21T06:50:51;12.18;;;2.83;;
14076;SDS011;7114;51.100;13.998;2023-11-21T06:53:18;10.00;;;2.60;;
14076;SDS011;7114;51.100;13.998;2023-11-21T06:55:44;9.53;;;2.67;;
14076;SDS011;7114;51.100;13.998;2023-11-21T06:58:12;10.52;;;2.80;;
14076;SDS011;7114;51.100;13.998;2023-11-21T07:00:39;10.27;;;2.97;;
14076;SDS011;7114;51.100;13.998;2023-11-21T07:03:06;12.77;;;3.50;;
14076;SDS011;7114;51.100;13.998;2023-11-21T07:05:32;12.20;;;3.20;;
14076;SDS011;7114;51.100;13.998;2023-11-21T07:07:58;14.27;;;4.37;;
14076;SDS011;7114;51.100;13.998;2023-11-21T07:10:29;14.73;;;3.00;;
14076;SDS011;7114;51.100;13.998;2023-11-21T07:12:55;13.77;;;2.92;;
14076;SDS011;7114;51.100;13.998;2023-11-21T07:15:23;15.43;;;3.05;;
14076;SDS011;7114;51.100;13.998;2023-11-21T07:17:51;10.38;;;3.05;;
14076;SDS011;7114;51.100;13.998;2023-11-21T07:20:19;11.17;;;3.10;;
14076;SDS011;7114;51.100;13.998;2023-11-21T07:22:46;13.32;;;3.03;;
14076;SDS011;7114;51.100;13.998;2023-11-21T07:25:12;13.10;;;3.17;;
14076;SDS011;7114;51.100;13.998;2023-11-21T07:27:39;12.48;;;3.28;;
14076;SDS011;7114;51.100;13.998;2023-11-21T07:30:05;12.73;;;3.55;;
14076;SDS011;7114;51.100;13.998;2023-11-21T07:32:36;10.00;;;3.03;;
14076;SDS011;7114;51.100;13.998;2023-11-21T07:35:04;13.32;;;3.72;;
14076;SDS011;7114;51.100;13.998;2023-11-21T07:37:33;15.23;;;3.70;;
14076;SDS011;7114;51.100;13.998;2023-11-21T07:39:59;14.20;;;3.50;;
14076;SDS011;7114;51.100;13.998;2023-11-21T07:42:25;14.18;;;3.42;;
14076;SDS011;7114;51.100;13.998;2023-11-21T07:44:52;12.07;;;3.27;;
14076;SDS011;7114;51.100;13.998;2023-11-21T07:47:18;11.38;;;3.00;;
14076;SDS011;7114;51.100;13.998;2023-11-21T07:49:46;15.90;;;3.45;;
14076;SDS011;7114;51.100;13.998;2023-11-21T07:52:12;11.30;;;3.25;;
14076;SDS011;7114;51.100;13.998;2023-11-21T07:54:39;16.33;;;3.30;;
14076;SDS011;7114;51.100;13.998;2023-11-21T07:57:06;12.67;;;3.53;;
14076;SDS011;7114;51.100;13.998;2023-11-21T07:59:33;11.05;;;3.50;;
14076;SDS011;7114;51.100;13.998;2023-11-21T08:01:59;13.32;;;3.78;;
14076;SDS011;7114;51.100;13.998;2023-11-21T08:04:25;14.68;;;3.60;;
14076;SDS011;7114;51.100;13.998;2023-11-21T08:06:53;13.10;;;4.22;;
14076;SDS011;7114;51.100;13.998;2023-11-21T08:09:19;12.10;;;4.07;;
14076;SDS011;7114;51.100;13.998;2023-11-21T08:11:49;13.70;;;4.40;;
14076;SDS011;7114;51.100;13.998;2023-11-21T08:14:16;16.42;;;4.07;;
14076;SDS011;7114;51.100;13.998;2023-11-21T08:16:43;14.50;;;3.63;;
14076;SDS011;7114;51.100;13.998;2023-11-21T08:19:09;14.98;;;4.50;;
14076;SDS011;7114;51.100;13.998;2023-11-21T08:21:36;15.53;;;4.23;;
14076;SDS011;7114;51.100;13.998;2023-11-21T08:24:07;13.60;;;4.22;;
14076;SDS011;7114;51.100;13.998;2023-11-21T08:26:35;15.15;;;4.65;;
14076;SDS011;7114;51.100;13.998;2023-11-21T08:29:02;12.55;;;4.38;;
14076;SDS011;7114;51.100;13.998;2023-11-21T08:31:28;16.63;;;3.85;;
14076;SDS011;7114;51.100;13.998;2023-11-21T08:33:54;12.60;;;4.30;;
14076;SDS011;7114;51.100;13.998;2023-11-21T08:36:21;15.68;;;4.22;;
14076;SDS011;7114;51.100;13.998;2023-11-21T08:38:48;16.23;;;3.90;;
14076;SDS011;7114;51.100;13.998;2023-11-21T08:41:16;12.40;;;3.97;;
14076;SDS011;7114;51.100;13.998;2023-11-21T08:43:42;13.05;;;3.60;;
14076;SDS011;7114;51.100;13.998;2023-11-21T08:46:09;15.07;;;4.23;;
14076;SDS011;7114;51.100;13.998;2023-11-21T08:48:36;12.43;;;3.60;;
14076;SDS011;7114;51.100;13.998;2023-11-21T08:51:03;11.27;;;3.50;;
14076;SDS011;7114;51.100;13.998;2023-11-21T08:53:30;8.88;;;3.60;;
14076;SDS011;7114;51.100;13.998;2023-11-21T08:55:56;12.25;;;4.05;;
14076;SDS011;7114;51.100;13.998;2023-11-21T08:58:24;13.50;;;4.73;;
14076;SDS011;7114;51.100;13.998;2023-11-21T09:00:51;12.13;;;4.95;;
14076;SDS011;7114;51.100;13.998;2023-11-21T09:03:17;14.35;;;4.90;;
14076;SDS011;7114;51.100;13.998;2023-11-21T09:05:43;14.90;;;4.80;;
14076;SDS011;7114;51.100;13.998;2023-11-21T09:08:10;14.98;;;4.65;;
14076;SDS011;7114;51.100;13.998;2023-11-21T09:10:36;13.27;;;4.10;;
14076;SDS011;7114;51.100;13.998;2023-11-21T09:13:04;10.70;;;3.45;;
14076;SDS011;7114;51.100;13.998;2023-11-21T09:15:32;11.48;;;3.33;;
14076;SDS011;7114;51.100;13.998;2023-11-21T09:17:58;8.63;;;2.03;;
14076;SDS011;7114;51.100;13.998;2023-11-21T09:20:25;9.15;;;2.10;;
14076;SDS011;7114;51.100;13.998;2023-11-21T09:22:51;7.97;;;2.50;;
14076;SDS011;7114;51.100;13.998;2023-11-21T09:25:19;6.70;;;2.38;;
14076;SDS011;7114;51.100;13.998;2023-11-21T09:27:46;8.20;;;2.50;;
14076;SDS011;7114;51.100;13.998;2023-11-21T09:30:13;7.57;;;2.25;;
14076;SDS011;7114;51.100;13.998;2023-11-21T09:32:41;7.45;;;2.30;;
14076;SDS011;7114;51.100;13.998;2023-11-21T09:35:10;6.97;;;2.67;;
14076;SDS011;7114;51.100;13.998;2023-11-21T09:37:36;7.07;;;2.40;;
14076;SDS011;7114;51.100;13.998;2023-11-21T09:40:04;7.75;;;2.30;;
14076;SDS011;7114;51.100;13.998;2023-11-21T09:42:36;6.72;;;2.15;;
14076;SDS011;7114;51.100;13.998;2023-11-21T09:45:05;6.93;;;2.42;;
14076;SDS011;7114;51.100;13.998;2023-11-21T09:47:38;7.30;;;2.20;;
14076;SDS011;7114;51.100;13.998;2023-11-21T09:50:06;7.40;;;2.10;;
14076;SDS011;7114;51.100;13.998;2023-11-21T09:52:35;6.22;;;2.30;;
14076;SDS011;7114;51.100;13.998;2023-11-21T09:55:09;6.43;;;2.30;;
14076;SDS011;7114;51.100;13.998;2023-11-21T09:57:40;6.55;;;2.35;;
14076;SDS011;7114;51.100;13.998;2023-11-21T10:00:08;6.30;;;2.23;;
14076;SDS011;7114;51.100;13.998;2023-11-21T10:02:36;6.32;;;2.50;;
14076;SDS011;7114;51.100;13.998;2023-11-21T10:05:07;6.30;;;2.00;;
14076;SDS011;7114;51.100;13.998;2023-11-21T10:07:34;6.65;;;1.95;;
14076;SDS011;7114;51.100;13.998;2023-11-21T10:10:01;7.47;;;2.78;;
14076;SDS011;7114;51.100;13.998;2023-11-21T10:12:28;6.17;;;1.93;;
14076;SDS011;7114;51.100;13.998;2023-11-21T10:14:54;7.13;;;2.25;;
14076;SDS011;7114;51.100;13.998;2023-11-21T10:17:25;6.93;;;2.10;;
14076;SDS011;7114;51.100;13.998;2023-11-21T10:19:55;7.32;;;2.75;;
14076;SDS011;7114;51.100;13.998;2023-11-21T10:22:23;8.88;;;2.67;;
14076;SDS011;7114;51.100;13.998;2023-11-21T10:24:50;8.47;;;3.10;;
14076;SDS011;7114;51.100;13.998;2023-11-21T10:27:16;8.65;;;3.35;;
14076;SDS011;7114;51.100;13.998;2023-11-21T10:29:43;8.20;;;3.10;;
14076;SDS011;7114;51.100;13.998;2023-11-21T10:32:10;8.98;;;3.53;;
14076;SDS011;7114;51.100;13.998;2023-11-21T10:34:38;9.15;;;3.67;;
14076;SDS011;7114;51.100;13.998;2023-11-21T10:37:10;9.97;;;4.10;;
14076;SDS011;7114;51.100;13.998;2023-11-21T10:39:38;8.43;;;3.53;;
14076;SDS011;7114;51.100;13.998;2023-11-21T10:42:07;7.72;;;2.92;;
14076;SDS011;7114;51.100;13.998;2023-11-21T10:44:34;8.32;;;3.35;;
14076;SDS011;7114;51.100;13.998;2023-11-21T10:47:00;8.18;;;3.40;;
14076;SDS011;7114;51.100;13.998;2023-11-21T10:49:27;10.70;;;4.77;;
14076;SDS011;7114;51.100;13.998;2023-11-21T10:51:54;11.10;;;5.13;;
14076;SDS011;7114;51.100;13.998;2023-11-21T10:54:21;10.07;;;3.75;;
14076;SDS011;7114;51.100;13.998;2023-11-21T10:56:50;11.40;;;4.45;;
14076;SDS011;7114;51.100;13.998;2023-11-21T10:59:17;12.02;;;5.00;;
14076;SDS011;7114;51.100;13.998;2023-11-21T11:01:44;11.53;;;5.20;;
14076;SDS011;7114;51.100;13.998;2023-11-21T11:04:11;10.57;;;4.25;;
14076;SDS011;7114;51.100;13.998;2023-11-21T11:06:41;10.05;;;4.40;;
14076;SDS011;7114;51.100;13.998;2023-11-21T11:09:08;11.93;;;4.80;;
14076;SDS011;7114;51.100;13.998;2023-11-21T11:11:38;11.05;;;4.82;;
14076;SDS011;7114;51.100;13.998;2023-11-21T11:14:07;11.87;;;5.00;;
14076;SDS011;7114;51.100;13.998;2023-11-21T11:16:35;14.15;;;5.25;;
14076;SDS011;7114;51.100;13.998;2023-11-21T11:19:02;12.32;;;5.20;;
14076;SDS011;7114;51.100;13.998;2023-11-21T11:21:31;11.95;;;5.35;;
14076;SDS011;7114;51.100;13.998;2023-11-21T11:27:01;10.17;;;3.83;;
14076;SDS011;7114;51.100;13.998;2023-11-21T11:29:36;11.50;;;4.55;;
14076;SDS011;7114;51.100;13.998;2023-11-21T11:32:10;13.32;;;4.63;;
14076;SDS011;7114;51.100;13.998;2023-11-21T11:34:41;11.38;;;4.40;;
14076;SDS011;7114;51.100;13.998;2023-11-21T11:37:10;11.80;;;4.78;;
14076;SDS011;7114;51.100;13.998;2023-11-21T11:39:38;12.60;;;4.67;;
14076;SDS011;7114;51.100;13.998;2023-11-21T11:42:07;12.18;;;5.07;;
14076;SDS011;7114;51.100;13.998;2023-11-21T11:44:47;11.15;;;4.70;;
14076;SDS011;7114;51.100;13.998;2023-11-21T11:47:19;12.93;;;4.60;;
14076;SDS011;7114;51.100;13.998;2023-11-21T11:50:03;10.07;;;4.20;;
14076;SDS011;7114;51.100;13.998;2023-11-21T11:52:33;11.73;;;4.43;;
14076;SDS011;7114;51.100;13.998;2023-11-21T11:55:05;10.70;;;4.03;;
14076;SDS011;7114;51.100;13.998;2023-11-21T11:57:34;10.75;;;3.90;;
14076;SDS011;7114;51.100;13.998;2023-11-21T12:00:12;11.10;;;4.65;;
14076;SDS011;7114;51.100;13.998;2023-11-21T12:02:44;13.35;;;5.30;;
14076;SDS011;7114;51.100;13.998;2023-11-21T12:05:11;13.53;;;5.60;;
14076;SDS011;7114;51.100;13.998;2023-11-21T12:07:42;12.43;;;4.97;;
14076;SDS011;7114;51.100;13.998;2023-11-21T12:10:10;11.93;;;4.57;;
14076;SDS011;7114;51.100;13.998;2023-11-21T12:12:41;11.02;;;3.92;;
14076;SDS011;7114;51.100;13.998;2023-11-21T12:15:08;12.45;;;4.30;;
14076;SDS011;7114;51.100;13.998;2023-11-21T12:17:36;13.07;;;4.43;;
14076;SDS011;7114;51.100;13.998;2023-11-21T12:20:03;11.68;;;4.20;;
14076;SDS011;7114;51.100;13.998;2023-11-21T12:22:31;12.98;;;4.53;;
14076;SDS011;7114;51.100;13.998;2023-11-21T12:24:57;15.43;;;5.53;;
14076;SDS011;7114;51.100;13.998;2023-11-21T12:27:24;14.45;;;4.95;;
14076;SDS011;7114;51.100;13.998;2023-11-21T12:29:50;13.83;;;5.13;;
14076;SDS011;7114;51.100;13.998;2023-11-21T12:32:17;13.70;;;5.05;;
14076;SDS011;7114;51.100;13.998;2023-11-21T12:34:45;14.77;;;5.95;;
14076;SDS011;7114;51.100;13.998;2023-11-21T12:37:12;14.23;;;5.70;;
14076;SDS011;7114;51.100;13.998;2023-11-21T12:39:38;14.88;;;5.80;;
14076;SDS011;7114;51.100;13.998;2023-11-21T12:42:04;15.40;;;6.00;;
14076;SDS011;7114;51.100;13.998;2023-11-21T12:44:31;15.45;;;5.70;;
14076;SDS011;7114;51.100;13.998;2023-11-21T12:46:57;14.10;;;5.55;;
14076;SDS011;7114;51.100;13.998;2023-11-21T12:49:26;16.05;;;5.63;;
14076;SDS011;7114;51.100;13.998;2023-11-21T12:51:54;14.38;;;5.50;;
14076;SDS011;7114;51.100;13.998;2023-11-21T12:54:21;15.83;;;5.63;;
14076;SDS011;7114;51.100;13.998;2023-11-21T12:56:47;15.50;;;5.90;;
14076;SDS011;7114;51.100;13.998;2023-11-21T12:59:13;13.77;;;5.40;;
14076;SDS011;7114;51.100;13.998;2023-11-21T13:01:41;12.80;;;5.40;;
14076;SDS011;7114;51.100;13.998;2023-11-21T13:04:07;11.13;;;4.15;;
14076;SDS011;7114;51.100;13.998;2023-11-21T13:06:36;10.67;;;4.00;;
14076;SDS011;7114;51.100;13.998;2023-11-21T13:09:07;11.98;;;4.60;;
14076;SDS011;7114;51.100;13.998;2023-11-21T13:11:35;11.55;;;4.18;;
14076;SDS011;7114;51.100;13.998;2023-11-21T13:14:02;12.10;;;4.28;;
14076;SDS011;7114;51.100;13.998;2023-11-21T13:16:29;11.68;;;4.22;;
14076;SDS011;7114;51.100;13.998;2023-11-21T13:18:56;11.13;;;3.80;;
14076;SDS011;7114;51.100;13.998;2023-11-21T13:21:23;12.73;;;4.45;;
14076;SDS011;7114;51.100;13.998;2023-11-21T13:23:49;13.98;;;4.80;;
14076;SDS011;7114;51.100;13.998;2023-11-21T13:26:19;14.15;;;5.20;;
14076;SDS011;7114;51.100;13.998;2023-11-21T13:28:48;12.52;;;4.53;;
14076;SDS011;7114;51.100;13.998;2023-11-21T13:31:15;15.20;;;4.83;;
14076;SDS011;7114;51.100;13.998;2023-11-21T13:33:52;13.40;;;4.50;;
14076;SDS011;7114;51.100;13.998;2023-11-21T13:36:21;13.13;;;4.78;;
14076;SDS011;7114;51.100;13.998;2023-11-21T13:38:48;12.32;;;4.50;;
14076;SDS011;7114;51.100;13.998;2023-11-21T13:41:15;11.15;;;4.25;;
14076;SDS011;7114;51.100;13.998;2023-11-21T13:43:44;12.40;;;4.40;;
14076;SDS011;7114;51.100;13.998;2023-11-21T13:46:15;12.65;;;4.60;;
14076;SDS011;7114;51.100;13.998;2023-11-21T13:48:46;11.68;;;4.35;;
14076;SDS011;7114;51.100;13.998;2023-11-21T13:51:15;16.52;;;6.43;;
14076;SDS011;7114;51.100;13.998;2023-11-21T13:53:43;18.95;;;6.30;;
14076;SDS011;7114;51.100;13.998;2023-11-21T13:56:10;19.33;;;6.17;;
14076;SDS011;7114;51.100;13.998;2023-11-21T13:58:38;21.73;;;7.15;;
14076;SDS011;7114;51.100;13.998;2023-11-21T14:01:12;21.95;;;7.43;;
14076;SDS011;7114;51.100;13.998;2023-11-21T14:03:57;20.33;;;6.88;;
14076;SDS011;7114;51.100;13.998;2023-11-21T14:06:33;18.83;;;6.55;;
14076;SDS011;7114;51.100;13.998;2023-11-21T14:09:07;18.57;;;6.10;;
14076;SDS011;7114;51.100;13.998;2023-11-21T14:11:33;16.45;;;5.63;;
14076;SDS011;7114;51.100;13.998;2023-11-21T14:14:00;15.35;;;5.57;;
14076;SDS011;7114;51.100;13.998;2023-11-21T14:16:28;16.63;;;5.60;;
14076;SDS011;7114;51.100;13.998;2023-11-21T14:18:54;17.30;;;5.38;;
14076;SDS011;7114;51.100;13.998;2023-11-21T14:21:26;17.97;;;5.73;;
14076;SDS011;7114;51.100;13.998;2023-11-21T14:23:53;17.33;;;5.95;;
14076;SDS011;7114;51.100;13.998;2023-11-21T14:26:20;15.50;;;5.40;;
14076;SDS011;7114;51.100;13.998;2023-11-21T14:28:50;15.45;;;5.15;;
14076;SDS011;7114;51.100;13.998;2023-11-21T14:31:18;16.98;;;5.15;;
14076;SDS011;7114;51.100;13.998;2023-11-21T14:33:46;15.03;;;5.10;;
14076;SDS011;7114;51.100;13.998;2023-11-21T14:36:12;14.73;;;5.05;;
14076;SDS011;7114;51.100;13.998;2023-11-21T14:38:38;16.67;;;5.68;;
14076;SDS011;7114;51.100;13.998;2023-11-21T14:41:05;16.88;;;6.20;;
14076;SDS011;7114;51.100;13.998;2023-11-21T14:43:33;15.82;;;6.47;;
14076;SDS011;7114;51.100;13.998;2023-11-21T14:46:00;13.70;;;4.90;;